sensor_id;sensor_type;location;lat;lon;timestamp;P1;durP1;ratioP1;P2;durP2;ratioP2
10653;SDS011;5375;51.250;6.776;2023-04-03T00:00:22;2.87;;;1.77;;
10653;SDS011;5375;51.250;6.776;2023-04-03T00:02:48;2.63;;;1.67;;
10653;SDS011;5375;51.250;6.776;2023-04-03T00:05:13;3.00;;;1.70;;
10653;SDS011;5375;51.250;6.776;2023-04-03T00:07:39;2.67;;;1.73;;
10653;SDS011;5375;51.250;6.776;2023-04-03T00:10:05;2.73;;;1.60;;
10653;SDS011;5375;51.250;6.776;2023-04-03T00:12:31;2.03;;;1.50;;
10653;SDS011;5375;51.250;6.776;2023-04-03T00:14:56;2.10;;;1.60;;
10653;SDS011;5375;51.250;6.776;2023-04-03T00:17:22;2.10;;;1.40;;
10653;SDS011;5375;51.250;6.776;2023-04-03T00:19:48;2.30;;;1.70;;
10653;SDS011;5375;51.250;6.776;2023-04-03T00:22:13;2.73;;;1.80;;
10653;SDS011;5375;51.250;6.776;2023-04-03T00:24:39;2.57;;;1.70;;
10653;SDS011;5375;51.250;6.776;2023-04-03T00:27:04;3.10;;;1.43;;
10653;SDS011;5375;51.250;6.776;2023-04-03T00:29:30;2.07;;;1.40;;
10653;SDS011;5375;51.250;6.776;2023-04-03T00:31:56;1.83;;;1.40;;
10653;SDS011;5375;51.250;6.776;2023-04-03T00:34:21;2.07;;;1.60;;
10653;SDS011;5375;51.250;6.776;2023-04-03T00:36:47;1.83;;;1.40;;
10653;SDS011;5375;51.250;6.776;2023-04-03T00:39:12;1.97;;;1.50;;
10653;SDS011;5375;51.250;6.776;2023-04-03T00:41:38;3.23;;;1.80;;
10653;SDS011;5375;51.250;6.776;2023-04-03T00:44:23;3.63;;;1.90;;
10653;SDS011;5375;51.250;6.776;2023-04-03T00:47:08;2.87;;;1.70;;
10653;SDS011;5375;51.250;6.776;2023-04-03T00:49:36;3.00;;;1.53;;
10653;SDS011;5375;51.250;6.776;2023-04-03T00:52:03;2.03;;;1.70;;
10653;SDS011;5375;51.250;6.776;2023-04-03T00:54:32;2.53;;;1.63;;
10653;SDS011;5375;51.250;6.776;2023-04-03T00:57:00;1.90;;;1.70;;
10653;SDS011;5375;51.250;6.776;2023-04-03T00:59:27;2.17;;;1.70;;
10653;SDS011;5375;51.250;6.776;2023-04-03T01:01:59;2.37;;;1.60;;
10653;SDS011;5375;51.250;6.776;2023-04-03T01:04:30;2.50;;;1.70;;
10653;SDS011;5375;51.250;6.776;2023-04-03T01:06:58;2.37;;;1.67;;
10653;SDS011;5375;51.250;6.776;2023-04-03T01:09:33;1.93;;;1.70;;
10653;SDS011;5375;51.250;6.776;2023-04-03T01:12:20;2.13;;;1.80;;
10653;SDS011;5375;51.250;6.776;2023-04-03T01:14:52;2.03;;;1.70;;
10653;SDS011;5375;51.250;6.776;2023-04-03T01:17:33;1.97;;;1.70;;
10653;SDS011;5375;51.250;6.776;2023-04-03T01:20:14;2.07;;;1.80;;
10653;SDS011;5375;51.250;6.776;2023-04-03T01:25:43;2.60;;;1.73;;
10653;SDS011;5375;51.250;6.776;2023-04-03T01:28:13;1.90;;;1.57;;
10653;SDS011;5375;51.250;6.776;2023-04-03T01:33:15;2.60;;;1.70;;
10653;SDS011;5375;51.250;6.776;2023-04-03T01:35:40;2.13;;;1.90;;
10653;SDS011;5375;51.250;6.776;2023-04-03T01:38:06;2.00;;;1.70;;
10653;SDS011;5375;51.250;6.776;2023-04-03T01:40:32;2.73;;;1.60;;
10653;SDS011;5375;51.250;6.776;2023-04-03T01:42:57;2.53;;;1.77;;
10653;SDS011;5375;51.250;6.776;2023-04-03T01:45:23;2.00;;;1.50;;
10653;SDS011;5375;51.250;6.776;2023-04-03T01:47:48;2.30;;;1.77;;
10653;SDS011;5375;51.250;6.776;2023-04-03T01:50:14;3.73;;;2.13;;
10653;SDS011;5375;51.250;6.776;2023-04-03T01:52:40;3.23;;;1.87;;
10653;SDS011;5375;51.250;6.776;2023-04-03T01:55:06;2.63;;;1.80;;
10653;SDS011;5375;51.250;6.776;2023-04-03T01:57:31;4.27;;;1.70;;
10653;SDS011;5375;51.250;6.776;2023-04-03T01:59:57;5.60;;;1.60;;
10653;SDS011;5375;51.250;6.776;2023-04-03T02:02:22;3.77;;;2.00;;
10653;SDS011;5375;51.250;6.776;2023-04-03T02:04:48;3.47;;;1.80;;
10653;SDS011;5375;51.250;6.776;2023-04-03T02:07:14;3.53;;;1.90;;
10653;SDS011;5375;51.250;6.776;2023-04-03T02:09:39;4.93;;;1.60;;
10653;SDS011;5375;51.250;6.776;2023-04-03T02:12:05;3.50;;;2.20;;
10653;SDS011;5375;51.250;6.776;2023-04-03T02:14:31;4.27;;;2.07;;
10653;SDS011;5375;51.250;6.776;2023-04-03T02:16:56;3.33;;;1.80;;
10653;SDS011;5375;51.250;6.776;2023-04-03T02:19:22;3.07;;;2.00;;
10653;SDS011;5375;51.250;6.776;2023-04-03T02:21:48;3.53;;;2.00;;
10653;SDS011;5375;51.250;6.776;2023-04-03T02:24:13;3.03;;;2.10;;
10653;SDS011;5375;51.250;6.776;2023-04-03T02:26:39;2.80;;;1.83;;
10653;SDS011;5375;51.250;6.776;2023-04-03T02:29:05;2.57;;;1.90;;
10653;SDS011;5375;51.250;6.776;2023-04-03T02:31:30;2.77;;;2.03;;
10653;SDS011;5375;51.250;6.776;2023-04-03T02:33:56;4.40;;;2.30;;
10653;SDS011;5375;51.250;6.776;2023-04-03T02:36:22;2.37;;;2.03;;
10653;SDS011;5375;51.250;6.776;2023-04-03T02:38:47;3.37;;;2.07;;
10653;SDS011;5375;51.250;6.776;2023-04-03T02:41:13;4.03;;;2.10;;
10653;SDS011;5375;51.250;6.776;2023-04-03T02:43:39;4.30;;;2.50;;
10653;SDS011;5375;51.250;6.776;2023-04-03T02:46:04;3.33;;;2.13;;
10653;SDS011;5375;51.250;6.776;2023-04-03T02:48:31;2.63;;;1.90;;
10653;SDS011;5375;51.250;6.776;2023-04-03T02:50:56;2.83;;;2.00;;
10653;SDS011;5375;51.250;6.776;2023-04-03T02:53:22;5.27;;;2.37;;
10653;SDS011;5375;51.250;6.776;2023-04-03T02:55:48;2.77;;;1.93;;
10653;SDS011;5375;51.250;6.776;2023-04-03T02:58:14;3.37;;;2.17;;
10653;SDS011;5375;51.250;6.776;2023-04-03T03:00:40;4.33;;;2.13;;
10653;SDS011;5375;51.250;6.776;2023-04-03T03:03:05;3.27;;;2.07;;
10653;SDS011;5375;51.250;6.776;2023-04-03T03:05:31;4.37;;;2.43;;
10653;SDS011;5375;51.250;6.776;2023-04-03T03:07:57;9.00;;;2.17;;
10653;SDS011;5375;51.250;6.776;2023-04-03T03:10:23;6.07;;;1.90;;
10653;SDS011;5375;51.250;6.776;2023-04-03T03:12:49;3.43;;;2.30;;
10653;SDS011;5375;51.250;6.776;2023-04-03T03:15:14;5.57;;;2.20;;
10653;SDS011;5375;51.250;6.776;2023-04-03T03:17:42;4.33;;;2.00;;
10653;SDS011;5375;51.250;6.776;2023-04-03T03:20:08;3.43;;;2.40;;
10653;SDS011;5375;51.250;6.776;2023-04-03T03:22:34;3.80;;;2.13;;
10653;SDS011;5375;51.250;6.776;2023-04-03T03:25:00;2.93;;;2.07;;
10653;SDS011;5375;51.250;6.776;2023-04-03T03:27:27;3.90;;;2.00;;
10653;SDS011;5375;51.250;6.776;2023-04-03T03:29:52;3.53;;;2.00;;
10653;SDS011;5375;51.250;6.776;2023-04-03T03:32:18;2.70;;;1.73;;
10653;SDS011;5375;51.250;6.776;2023-04-03T03:34:44;2.80;;;2.00;;
10653;SDS011;5375;51.250;6.776;2023-04-03T03:37:10;4.77;;;2.00;;
10653;SDS011;5375;51.250;6.776;2023-04-03T03:39:35;3.10;;;2.00;;
10653;SDS011;5375;51.250;6.776;2023-04-03T03:42:01;3.27;;;2.30;;
10653;SDS011;5375;51.250;6.776;2023-04-03T03:44:27;3.67;;;2.47;;
10653;SDS011;5375;51.250;6.776;2023-04-03T03:46:54;3.17;;;2.10;;
10653;SDS011;5375;51.250;6.776;2023-04-03T03:49:20;2.90;;;2.17;;
10653;SDS011;5375;51.250;6.776;2023-04-03T03:51:45;4.30;;;2.00;;
10653;SDS011;5375;51.250;6.776;2023-04-03T03:54:12;3.87;;;2.07;;
10653;SDS011;5375;51.250;6.776;2023-04-03T03:56:38;3.73;;;2.30;;
10653;SDS011;5375;51.250;6.776;2023-04-03T03:59:04;4.70;;;2.37;;
10653;SDS011;5375;51.250;6.776;2023-04-03T04:01:30;3.13;;;1.93;;
10653;SDS011;5375;51.250;6.776;2023-04-03T04:03:56;3.27;;;2.00;;
10653;SDS011;5375;51.250;6.776;2023-04-03T04:06:22;3.37;;;2.00;;
10653;SDS011;5375;51.250;6.776;2023-04-03T04:08:47;4.10;;;2.00;;
10653;SDS011;5375;51.250;6.776;2023-04-03T04:11:13;2.80;;;1.80;;
10653;SDS011;5375;51.250;6.776;2023-04-03T04:13:39;4.23;;;2.10;;
10653;SDS011;5375;51.250;6.776;2023-04-03T04:16:05;2.90;;;2.10;;
10653;SDS011;5375;51.250;6.776;2023-04-03T04:18:32;3.50;;;2.13;;
10653;SDS011;5375;51.250;6.776;2023-04-03T04:20:57;8.03;;;2.00;;
10653;SDS011;5375;51.250;6.776;2023-04-03T04:23:23;3.70;;;1.80;;
10653;SDS011;5375;51.250;6.776;2023-04-03T04:25:49;3.77;;;2.00;;
10653;SDS011;5375;51.250;6.776;2023-04-03T04:28:15;2.60;;;1.97;;
10653;SDS011;5375;51.250;6.776;2023-04-03T04:30:41;4.03;;;2.10;;
10653;SDS011;5375;51.250;6.776;2023-04-03T04:33:07;4.30;;;2.07;;
10653;SDS011;5375;51.250;6.776;2023-04-03T04:35:33;2.73;;;1.80;;
10653;SDS011;5375;51.250;6.776;2023-04-03T04:37:59;3.23;;;1.80;;
10653;SDS011;5375;51.250;6.776;2023-04-03T04:40:25;2.70;;;1.60;;
10653;SDS011;5375;51.250;6.776;2023-04-03T04:42:50;2.67;;;1.80;;
10653;SDS011;5375;51.250;6.776;2023-04-03T04:45:16;3.40;;;2.10;;
10653;SDS011;5375;51.250;6.776;2023-04-03T04:47:42;3.17;;;1.60;;
10653;SDS011;5375;51.250;6.776;2023-04-03T04:50:07;3.27;;;1.97;;
10653;SDS011;5375;51.250;6.776;2023-04-03T04:52:33;4.27;;;2.20;;
10653;SDS011;5375;51.250;6.776;2023-04-03T04:54:59;3.30;;;2.10;;
10653;SDS011;5375;51.250;6.776;2023-04-03T04:57:25;3.77;;;2.03;;
10653;SDS011;5375;51.250;6.776;2023-04-03T04:59:51;6.93;;;1.97;;
10653;SDS011;5375;51.250;6.776;2023-04-03T05:02:16;3.63;;;2.03;;
10653;SDS011;5375;51.250;6.776;2023-04-03T05:04:42;2.67;;;1.97;;
10653;SDS011;5375;51.250;6.776;2023-04-03T05:07:07;5.90;;;2.30;;
10653;SDS011;5375;51.250;6.776;2023-04-03T05:09:33;4.43;;;2.20;;
10653;SDS011;5375;51.250;6.776;2023-04-03T05:11:59;3.80;;;1.90;;
10653;SDS011;5375;51.250;6.776;2023-04-03T05:14:25;7.23;;;2.23;;
10653;SDS011;5375;51.250;6.776;2023-04-03T05:16:50;3.43;;;1.73;;
10653;SDS011;5375;51.250;6.776;2023-04-03T05:19:19;10.10;;;2.37;;
10653;SDS011;5375;51.250;6.776;2023-04-03T05:21:46;3.10;;;2.30;;
10653;SDS011;5375;51.250;6.776;2023-04-03T05:24:12;3.17;;;1.97;;
10653;SDS011;5375;51.250;6.776;2023-04-03T05:26:39;3.70;;;2.03;;
10653;SDS011;5375;51.250;6.776;2023-04-03T05:29:05;3.27;;;1.83;;
10653;SDS011;5375;51.250;6.776;2023-04-03T05:31:31;7.77;;;2.23;;
10653;SDS011;5375;51.250;6.776;2023-04-03T05:33:56;3.47;;;1.80;;
10653;SDS011;5375;51.250;6.776;2023-04-03T05:36:22;3.50;;;1.87;;
10653;SDS011;5375;51.250;6.776;2023-04-03T05:38:47;3.63;;;1.80;;
10653;SDS011;5375;51.250;6.776;2023-04-03T05:41:13;3.07;;;1.87;;
10653;SDS011;5375;51.250;6.776;2023-04-03T05:43:40;3.33;;;1.90;;
10653;SDS011;5375;51.250;6.776;2023-04-03T05:46:12;3.07;;;2.20;;
10653;SDS011;5375;51.250;6.776;2023-04-03T05:48:39;4.90;;;2.20;;
10653;SDS011;5375;51.250;6.776;2023-04-03T05:51:06;3.77;;;2.20;;
10653;SDS011;5375;51.250;6.776;2023-04-03T05:53:33;3.80;;;2.03;;
10653;SDS011;5375;51.250;6.776;2023-04-03T05:56:04;2.77;;;1.80;;
10653;SDS011;5375;51.250;6.776;2023-04-03T05:58:29;3.53;;;2.03;;
10653;SDS011;5375;51.250;6.776;2023-04-03T06:00:55;5.93;;;2.20;;
10653;SDS011;5375;51.250;6.776;2023-04-03T06:03:22;4.67;;;2.10;;
10653;SDS011;5375;51.250;6.776;2023-04-03T06:05:47;3.03;;;1.90;;
10653;SDS011;5375;51.250;6.776;2023-04-03T06:08:13;3.43;;;2.00;;
10653;SDS011;5375;51.250;6.776;2023-04-03T06:10:39;6.43;;;2.40;;
10653;SDS011;5375;51.250;6.776;2023-04-03T06:13:05;3.30;;;2.03;;
10653;SDS011;5375;51.250;6.776;2023-04-03T06:15:31;2.87;;;1.73;;
10653;SDS011;5375;51.250;6.776;2023-04-03T06:17:56;3.40;;;2.00;;
10653;SDS011;5375;51.250;6.776;2023-04-03T06:20:22;5.70;;;2.10;;
10653;SDS011;5375;51.250;6.776;2023-04-03T06:22:48;3.50;;;1.87;;
10653;SDS011;5375;51.250;6.776;2023-04-03T06:25:13;3.83;;;1.87;;
10653;SDS011;5375;51.250;6.776;2023-04-03T06:27:39;3.43;;;1.90;;
10653;SDS011;5375;51.250;6.776;2023-04-03T06:30:05;3.93;;;2.23;;
10653;SDS011;5375;51.250;6.776;2023-04-03T06:32:32;2.73;;;1.70;;
10653;SDS011;5375;51.250;6.776;2023-04-03T06:34:57;4.80;;;1.80;;
10653;SDS011;5375;51.250;6.776;2023-04-03T06:37:23;3.33;;;2.00;;
10653;SDS011;5375;51.250;6.776;2023-04-03T06:39:53;3.03;;;1.80;;
10653;SDS011;5375;51.250;6.776;2023-04-03T06:42:19;5.13;;;2.40;;
10653;SDS011;5375;51.250;6.776;2023-04-03T06:44:45;3.17;;;1.80;;
10653;SDS011;5375;51.250;6.776;2023-04-03T06:47:11;3.87;;;1.77;;
10653;SDS011;5375;51.250;6.776;2023-04-03T06:49:41;4.03;;;2.00;;
10653;SDS011;5375;51.250;6.776;2023-04-03T06:52:07;3.50;;;1.80;;
10653;SDS011;5375;51.250;6.776;2023-04-03T06:54:33;2.87;;;1.90;;
10653;SDS011;5375;51.250;6.776;2023-04-03T06:56:59;3.77;;;1.97;;
10653;SDS011;5375;51.250;6.776;2023-04-03T06:59:24;3.00;;;1.97;;
10653;SDS011;5375;51.250;6.776;2023-04-03T07:01:50;2.23;;;1.73;;
10653;SDS011;5375;51.250;6.776;2023-04-03T07:04:16;4.23;;;2.30;;
10653;SDS011;5375;51.250;6.776;2023-04-03T07:06:44;2.80;;;2.00;;
10653;SDS011;5375;51.250;6.776;2023-04-03T07:09:10;4.20;;;2.30;;
10653;SDS011;5375;51.250;6.776;2023-04-03T07:11:36;3.07;;;2.00;;
10653;SDS011;5375;51.250;6.776;2023-04-03T07:14:01;3.27;;;2.00;;
10653;SDS011;5375;51.250;6.776;2023-04-03T07:16:27;3.50;;;2.20;;
10653;SDS011;5375;51.250;6.776;2023-04-03T07:18:55;3.63;;;2.00;;
10653;SDS011;5375;51.250;6.776;2023-04-03T07:21:22;4.00;;;1.83;;
10653;SDS011;5375;51.250;6.776;2023-04-03T07:23:47;2.47;;;1.67;;
10653;SDS011;5375;51.250;6.776;2023-04-03T07:26:13;3.10;;;2.10;;
10653;SDS011;5375;51.250;6.776;2023-04-03T07:28:38;3.97;;;2.00;;
10653;SDS011;5375;51.250;6.776;2023-04-03T07:31:06;3.00;;;1.73;;
10653;SDS011;5375;51.250;6.776;2023-04-03T07:33:38;2.50;;;1.70;;
10653;SDS011;5375;51.250;6.776;2023-04-03T07:36:05;2.80;;;1.70;;
10653;SDS011;5375;51.250;6.776;2023-04-03T07:38:32;4.07;;;1.83;;
10653;SDS011;5375;51.250;6.776;2023-04-03T07:40:58;3.93;;;1.80;;
10653;SDS011;5375;51.250;6.776;2023-04-03T07:43:24;3.30;;;1.97;;
10653;SDS011;5375;51.250;6.776;2023-04-03T07:45:50;3.30;;;2.00;;
10653;SDS011;5375;51.250;6.776;2023-04-03T07:48:16;2.73;;;1.53;;
10653;SDS011;5375;51.250;6.776;2023-04-03T07:50:43;3.23;;;1.70;;
10653;SDS011;5375;51.250;6.776;2023-04-03T07:53:09;3.00;;;1.70;;
10653;SDS011;5375;51.250;6.776;2023-04-03T07:55:35;2.00;;;1.50;;
10653;SDS011;5375;51.250;6.776;2023-04-03T07:58:07;3.67;;;1.70;;
10653;SDS011;5375;51.250;6.776;2023-04-03T08:00:35;2.60;;;1.87;;
10653;SDS011;5375;51.250;6.776;2023-04-03T08:03:01;3.07;;;1.67;;
10653;SDS011;5375;51.250;6.776;2023-04-03T08:05:27;2.87;;;1.53;;
10653;SDS011;5375;51.250;6.776;2023-04-03T08:07:52;2.47;;;1.80;;
10653;SDS011;5375;51.250;6.776;2023-04-03T08:10:18;2.47;;;1.70;;
10653;SDS011;5375;51.250;6.776;2023-04-03T08:12:45;3.77;;;1.83;;
10653;SDS011;5375;51.250;6.776;2023-04-03T08:15:12;2.20;;;1.63;;
10653;SDS011;5375;51.250;6.776;2023-04-03T08:17:38;3.17;;;1.77;;
10653;SDS011;5375;51.250;6.776;2023-04-03T08:20:04;2.07;;;1.47;;
10653;SDS011;5375;51.250;6.776;2023-04-03T08:22:31;2.60;;;1.70;;
10653;SDS011;5375;51.250;6.776;2023-04-03T08:24:57;2.77;;;1.40;;
10653;SDS011;5375;51.250;6.776;2023-04-03T08:27:23;3.43;;;1.87;;
10653;SDS011;5375;51.250;6.776;2023-04-03T08:29:48;3.87;;;1.80;;
10653;SDS011;5375;51.250;6.776;2023-04-03T08:32:14;2.70;;;1.77;;
10653;SDS011;5375;51.250;6.776;2023-04-03T08:34:40;2.67;;;1.67;;
10653;SDS011;5375;51.250;6.776;2023-04-03T08:37:06;2.80;;;1.60;;
10653;SDS011;5375;51.250;6.776;2023-04-03T08:39:32;3.17;;;1.60;;
10653;SDS011;5375;51.250;6.776;2023-04-03T08:41:58;2.23;;;1.40;;
10653;SDS011;5375;51.250;6.776;2023-04-03T08:50:06;3.33;;;1.53;;
10653;SDS011;5375;51.250;6.776;2023-04-03T08:52:38;2.53;;;1.60;;
10653;SDS011;5375;51.250;6.776;2023-04-03T08:57:41;2.73;;;1.70;;
10653;SDS011;5375;51.250;6.776;2023-04-03T09:00:25;2.83;;;1.50;;
10653;SDS011;5375;51.250;6.776;2023-04-03T09:02:55;3.00;;;1.67;;
10653;SDS011;5375;51.250;6.776;2023-04-03T09:08:22;3.17;;;1.57;;
10653;SDS011;5375;51.250;6.776;2023-04-03T09:10:48;4.17;;;1.67;;
10653;SDS011;5375;51.250;6.776;2023-04-03T09:13:29;3.70;;;1.53;;
10653;SDS011;5375;51.250;6.776;2023-04-03T09:16:02;3.23;;;1.73;;
10653;SDS011;5375;51.250;6.776;2023-04-03T09:18:39;2.57;;;1.60;;
10653;SDS011;5375;51.250;6.776;2023-04-03T09:21:18;3.13;;;1.73;;
10653;SDS011;5375;51.250;6.776;2023-04-03T09:23:50;2.93;;;1.63;;
10653;SDS011;5375;51.250;6.776;2023-04-03T09:26:23;2.43;;;1.33;;
10653;SDS011;5375;51.250;6.776;2023-04-03T09:28:54;2.23;;;1.37;;
10653;SDS011;5375;51.250;6.776;2023-04-03T09:31:29;3.17;;;1.50;;
10653;SDS011;5375;51.250;6.776;2023-04-03T09:34:02;2.63;;;1.40;;
10653;SDS011;5375;51.250;6.776;2023-04-03T09:36:45;2.13;;;1.40;;
10653;SDS011;5375;51.250;6.776;2023-04-03T09:39:22;2.67;;;1.40;;
10653;SDS011;5375;51.250;6.776;2023-04-03T09:42:00;2.07;;;1.40;;
10653;SDS011;5375;51.250;6.776;2023-04-03T09:44:34;2.67;;;1.30;;
10653;SDS011;5375;51.250;6.776;2023-04-03T09:52:38;2.37;;;1.20;;
10653;SDS011;5375;51.250;6.776;2023-04-03T09:55:15;2.77;;;1.40;;
10653;SDS011;5375;51.250;6.776;2023-04-03T09:57:55;2.37;;;1.30;;
10653;SDS011;5375;51.250;6.776;2023-04-03T10:00:28;6.47;;;1.50;;
10653;SDS011;5375;51.250;6.776;2023-04-03T10:02:58;2.20;;;1.30;;
10653;SDS011;5375;51.250;6.776;2023-04-03T10:08:08;2.03;;;1.30;;
10653;SDS011;5375;51.250;6.776;2023-04-03T10:10:36;1.70;;;1.20;;
10653;SDS011;5375;51.250;6.776;2023-04-03T10:13:06;1.80;;;1.10;;
10653;SDS011;5375;51.250;6.776;2023-04-03T10:15:45;2.50;;;1.50;;
10653;SDS011;5375;51.250;6.776;2023-04-03T10:21:12;1.97;;;1.40;;
10653;SDS011;5375;51.250;6.776;2023-04-03T10:23:54;2.50;;;1.33;;
10653;SDS011;5375;51.250;6.776;2023-04-03T10:26:49;2.13;;;1.20;;
10653;SDS011;5375;51.250;6.776;2023-04-03T10:29:32;1.83;;;1.20;;
10653;SDS011;5375;51.250;6.776;2023-04-03T10:40:15;2.27;;;1.00;;
10653;SDS011;5375;51.250;6.776;2023-04-03T10:48:22;2.20;;;1.17;;
10653;SDS011;5375;51.250;6.776;2023-04-03T10:51:10;1.93;;;1.20;;
10653;SDS011;5375;51.250;6.776;2023-04-03T10:54:01;2.43;;;1.20;;
10653;SDS011;5375;51.250;6.776;2023-04-03T10:56:39;2.00;;;0.97;;
10653;SDS011;5375;51.250;6.776;2023-04-03T10:59:13;2.60;;;1.30;;
10653;SDS011;5375;51.250;6.776;2023-04-03T11:02:17;2.30;;;1.23;;
10653;SDS011;5375;51.250;6.776;2023-04-03T11:04:55;1.83;;;1.10;;
10653;SDS011;5375;51.250;6.776;2023-04-03T11:07:28;1.97;;;1.20;;
10653;SDS011;5375;51.250;6.776;2023-04-03T11:10:00;1.97;;;0.90;;
10653;SDS011;5375;51.250;6.776;2023-04-03T11:12:36;2.83;;;1.20;;
10653;SDS011;5375;51.250;6.776;2023-04-03T11:15:11;1.70;;;1.00;;
10653;SDS011;5375;51.250;6.776;2023-04-03T11:18:02;1.77;;;1.00;;
10653;SDS011;5375;51.250;6.776;2023-04-03T11:20:33;1.67;;;0.97;;
10653;SDS011;5375;51.250;6.776;2023-04-03T11:23:06;1.93;;;0.93;;
10653;SDS011;5375;51.250;6.776;2023-04-03T11:25:40;3.23;;;1.00;;
10653;SDS011;5375;51.250;6.776;2023-04-03T11:28:14;1.80;;;1.00;;
10653;SDS011;5375;51.250;6.776;2023-04-03T11:36:43;1.80;;;1.10;;
10653;SDS011;5375;51.250;6.776;2023-04-03T11:42:15;1.43;;;1.00;;
10653;SDS011;5375;51.250;6.776;2023-04-03T11:44:50;2.50;;;1.23;;
10653;SDS011;5375;51.250;6.776;2023-04-03T11:53:02;2.87;;;0.90;;
10653;SDS011;5375;51.250;6.776;2023-04-03T12:08:34;1.50;;;0.93;;
10653;SDS011;5375;51.250;6.776;2023-04-03T12:16:06;1.77;;;1.10;;
10653;SDS011;5375;51.250;6.776;2023-04-03T12:29:33;1.50;;;0.80;;
10653;SDS011;5375;51.250;6.776;2023-04-03T12:38:14;1.70;;;0.90;;
10653;SDS011;5375;51.250;6.776;2023-04-03T12:40:57;1.30;;;0.73;;
10653;SDS011;5375;51.250;6.776;2023-04-03T12:46:35;2.63;;;0.90;;
10653;SDS011;5375;51.250;6.776;2023-04-03T12:49:22;2.03;;;0.90;;
10653;SDS011;5375;51.250;6.776;2023-04-03T12:52:00;1.60;;;0.80;;
10653;SDS011;5375;51.250;6.776;2023-04-03T12:54:37;1.87;;;1.10;;
10653;SDS011;5375;51.250;6.776;2023-04-03T12:59:42;3.43;;;0.80;;
10653;SDS011;5375;51.250;6.776;2023-04-03T13:02:15;2.03;;;1.10;;
10653;SDS011;5375;51.250;6.776;2023-04-03T13:04:57;2.27;;;0.80;;
10653;SDS011;5375;51.250;6.776;2023-04-03T13:10:09;1.27;;;0.70;;
10653;SDS011;5375;51.250;6.776;2023-04-03T13:12:52;1.50;;;0.60;;
10653;SDS011;5375;51.250;6.776;2023-04-03T13:17:47;1.37;;;1.00;;
10653;SDS011;5375;51.250;6.776;2023-04-03T13:20:25;3.90;;;1.00;;
10653;SDS011;5375;51.250;6.776;2023-04-03T13:22:57;2.60;;;0.80;;
10653;SDS011;5375;51.250;6.776;2023-04-03T13:25:30;1.67;;;0.90;;
10653;SDS011;5375;51.250;6.776;2023-04-03T13:27:58;2.40;;;0.80;;
10653;SDS011;5375;51.250;6.776;2023-04-03T13:30:32;2.97;;;1.00;;
10653;SDS011;5375;51.250;6.776;2023-04-03T13:33:02;2.83;;;0.80;;
10653;SDS011;5375;51.250;6.776;2023-04-03T13:35:35;1.93;;;0.80;;
10653;SDS011;5375;51.250;6.776;2023-04-03T13:38:05;2.47;;;0.83;;
10653;SDS011;5375;51.250;6.776;2023-04-03T13:40:51;5.10;;;0.80;;
10653;SDS011;5375;51.250;6.776;2023-04-03T13:43:20;2.00;;;0.87;;
10653;SDS011;5375;51.250;6.776;2023-04-03T13:48:21;1.53;;;0.67;;
10653;SDS011;5375;51.250;6.776;2023-04-03T13:53:28;3.23;;;0.83;;
10653;SDS011;5375;51.250;6.776;2023-04-03T13:55:57;2.33;;;0.80;;
10653;SDS011;5375;51.250;6.776;2023-04-03T13:58:34;1.23;;;0.70;;
10653;SDS011;5375;51.250;6.776;2023-04-03T14:03:42;1.23;;;0.60;;
10653;SDS011;5375;51.250;6.776;2023-04-03T14:06:12;1.33;;;0.60;;
10653;SDS011;5375;51.250;6.776;2023-04-03T14:08:40;6.30;;;1.10;;
10653;SDS011;5375;51.250;6.776;2023-04-03T14:11:08;1.43;;;0.87;;
10653;SDS011;5375;51.250;6.776;2023-04-03T14:13:55;2.50;;;0.80;;
10653;SDS011;5375;51.250;6.776;2023-04-03T14:16:37;2.27;;;0.70;;
10653;SDS011;5375;51.250;6.776;2023-04-03T14:19:05;1.43;;;0.87;;
10653;SDS011;5375;51.250;6.776;2023-04-03T14:21:31;1.80;;;0.90;;
10653;SDS011;5375;51.250;6.776;2023-04-03T14:23:57;1.67;;;0.70;;
10653;SDS011;5375;51.250;6.776;2023-04-03T14:26:23;1.40;;;0.73;;
10653;SDS011;5375;51.250;6.776;2023-04-03T14:28:52;0.90;;;0.70;;
10653;SDS011;5375;51.250;6.776;2023-04-03T14:31:19;1.73;;;0.77;;
10653;SDS011;5375;51.250;6.776;2023-04-03T14:33:46;6.00;;;0.97;;
10653;SDS011;5375;51.250;6.776;2023-04-03T14:38:43;2.40;;;0.80;;
10653;SDS011;5375;51.250;6.776;2023-04-03T14:41:13;1.63;;;0.90;;
10653;SDS011;5375;51.250;6.776;2023-04-03T14:43:41;5.00;;;0.80;;
10653;SDS011;5375;51.250;6.776;2023-04-03T14:46:11;3.60;;;1.00;;
10653;SDS011;5375;51.250;6.776;2023-04-03T14:48:39;4.50;;;1.00;;
10653;SDS011;5375;51.250;6.776;2023-04-03T14:51:05;3.33;;;1.20;;
10653;SDS011;5375;51.250;6.776;2023-04-03T14:53:31;6.20;;;1.70;;
10653;SDS011;5375;51.250;6.776;2023-04-03T14:55:57;8.63;;;1.30;;
10653;SDS011;5375;51.250;6.776;2023-04-03T14:58:23;3.20;;;1.30;;
10653;SDS011;5375;51.250;6.776;2023-04-03T15:00:49;5.07;;;1.77;;
10653;SDS011;5375;51.250;6.776;2023-04-03T15:03:19;9.63;;;1.70;;
10653;SDS011;5375;51.250;6.776;2023-04-03T15:05:46;7.30;;;1.60;;
10653;SDS011;5375;51.250;6.776;2023-04-03T15:08:17;9.10;;;1.73;;
10653;SDS011;5375;51.250;6.776;2023-04-03T15:10:45;9.20;;;1.90;;
10653;SDS011;5375;51.250;6.776;2023-04-03T15:13:11;5.27;;;1.37;;
10653;SDS011;5375;51.250;6.776;2023-04-03T15:15:38;4.57;;;1.57;;
10653;SDS011;5375;51.250;6.776;2023-04-03T15:18:04;7.00;;;1.73;;
10653;SDS011;5375;51.250;6.776;2023-04-03T15:20:30;4.07;;;1.50;;
10653;SDS011;5375;51.250;6.776;2023-04-03T15:22:58;6.60;;;1.50;;
10653;SDS011;5375;51.250;6.776;2023-04-03T15:25:27;5.67;;;1.30;;
10653;SDS011;5375;51.250;6.776;2023-04-03T15:27:53;7.13;;;1.97;;
10653;SDS011;5375;51.250;6.776;2023-04-03T15:30:19;5.67;;;1.70;;
10653;SDS011;5375;51.250;6.776;2023-04-03T15:32:46;3.87;;;1.40;;
10653;SDS011;5375;51.250;6.776;2023-04-03T15:35:12;4.80;;;1.40;;
10653;SDS011;5375;51.250;6.776;2023-04-03T15:37:38;2.87;;;1.23;;
10653;SDS011;5375;51.250;6.776;2023-04-03T15:40:04;4.40;;;1.40;;
10653;SDS011;5375;51.250;6.776;2023-04-03T15:42:32;4.67;;;1.30;;
10653;SDS011;5375;51.250;6.776;2023-04-03T15:44:58;6.10;;;2.03;;
10653;SDS011;5375;51.250;6.776;2023-04-03T15:47:24;5.77;;;1.77;;
10653;SDS011;5375;51.250;6.776;2023-04-03T15:49:51;3.27;;;1.10;;
10653;SDS011;5375;51.250;6.776;2023-04-03T15:52:16;6.87;;;1.50;;
10653;SDS011;5375;51.250;6.776;2023-04-03T15:54:42;5.33;;;1.37;;
10653;SDS011;5375;51.250;6.776;2023-04-03T15:57:08;3.83;;;1.60;;
10653;SDS011;5375;51.250;6.776;2023-04-03T15:59:33;6.03;;;1.60;;
10653;SDS011;5375;51.250;6.776;2023-04-03T16:01:59;3.07;;;1.20;;
10653;SDS011;5375;51.250;6.776;2023-04-03T16:04:28;2.67;;;1.20;;
10653;SDS011;5375;51.250;6.776;2023-04-03T16:06:54;5.90;;;1.20;;
10653;SDS011;5375;51.250;6.776;2023-04-03T16:09:20;2.77;;;1.23;;
10653;SDS011;5375;51.250;6.776;2023-04-03T16:11:46;4.03;;;1.20;;
10653;SDS011;5375;51.250;6.776;2023-04-03T16:14:12;3.23;;;1.20;;
10653;SDS011;5375;51.250;6.776;2023-04-03T16:16:37;3.63;;;1.27;;
10653;SDS011;5375;51.250;6.776;2023-04-03T16:19:04;3.97;;;1.40;;
10653;SDS011;5375;51.250;6.776;2023-04-03T16:21:30;2.30;;;1.10;;
10653;SDS011;5375;51.250;6.776;2023-04-03T16:23:59;2.33;;;1.03;;
10653;SDS011;5375;51.250;6.776;2023-04-03T16:26:26;5.00;;;1.53;;
10653;SDS011;5375;51.250;6.776;2023-04-03T16:28:52;3.90;;;1.20;;
10653;SDS011;5375;51.250;6.776;2023-04-03T16:31:18;2.10;;;1.00;;
10653;SDS011;5375;51.250;6.776;2023-04-03T16:33:45;3.07;;;1.13;;
10653;SDS011;5375;51.250;6.776;2023-04-03T16:36:11;3.57;;;1.37;;
10653;SDS011;5375;51.250;6.776;2023-04-03T16:38:36;3.00;;;1.20;;
10653;SDS011;5375;51.250;6.776;2023-04-03T16:41:02;2.43;;;1.20;;
10653;SDS011;5375;51.250;6.776;2023-04-03T16:43:30;3.27;;;1.03;;
10653;SDS011;5375;51.250;6.776;2023-04-03T16:45:56;1.43;;;0.87;;
10653;SDS011;5375;51.250;6.776;2023-04-03T16:48:22;4.30;;;1.40;;
10653;SDS011;5375;51.250;6.776;2023-04-03T16:50:48;3.33;;;1.27;;
10653;SDS011;5375;51.250;6.776;2023-04-03T16:53:15;3.10;;;1.30;;
10653;SDS011;5375;51.250;6.776;2023-04-03T16:55:41;2.90;;;1.20;;
10653;SDS011;5375;51.250;6.776;2023-04-03T16:58:06;2.87;;;1.33;;
10653;SDS011;5375;51.250;6.776;2023-04-03T17:00:32;3.40;;;1.57;;